createdAt,value
2018-11-28T00:00:22.455Z,0.70
2018-11-28T00:02:51.501Z,1.43
2018-11-28T00:05:20.572Z,0.67
2018-11-28T00:07:49.607Z,1.53
2018-11-28T00:10:18.584Z,1.13
2018-11-28T00:12:47.679Z,0.97
2018-11-28T00:15:18.347Z,2.63
2018-11-28T00:17:47.360Z,1.43
2018-11-28T00:20:20.092Z,1.40
2018-11-28T00:22:49.116Z,1.40
2018-11-28T00:25:18.659Z,1.30
2018-11-28T00:27:47.638Z,3.13
2018-11-28T00:30:19.021Z,2.00
2018-11-28T00:32:48.050Z,0.97
2018-11-28T00:35:18.061Z,1.97
2018-11-28T00:37:49.883Z,1.73
2018-11-28T00:40:21.907Z,2.77
2018-11-28T00:42:51.101Z,2.37
2018-11-28T00:45:21.875Z,1.45
2018-11-28T00:47:50.950Z,1.20
2018-11-28T00:50:20.946Z,1.23
2018-11-28T00:52:49.970Z,1.53
2018-11-28T00:55:19.205Z,1.07
2018-11-28T00:57:54.678Z,2.00
2018-11-28T01:00:24.969Z,3.20
2018-11-28T01:02:53.979Z,1.87
2018-11-28T01:05:23.259Z,1.07
2018-11-28T01:07:54.962Z,1.63
2018-11-28T01:10:25.057Z,2.87
2018-11-28T01:12:54.619Z,0.80
2018-11-28T01:15:23.583Z,2.77
2018-11-28T01:17:52.594Z,1.67
2018-11-28T01:20:22.934Z,0.83
2018-11-28T01:22:55.021Z,2.60
2018-11-28T01:25:24.138Z,2.93
2018-11-28T01:27:53.047Z,1.70
2018-11-28T01:30:24.338Z,0.40
2018-11-28T01:32:53.480Z,0.53
2018-11-28T01:35:23.142Z,0.73
2018-11-28T01:37:52.138Z,0.43
2018-11-28T01:40:22.566Z,0.63
2018-11-28T01:42:51.590Z,0.30
2018-11-28T01:45:21.809Z,0.30
2018-11-28T01:47:50.840Z,0.20
2018-11-28T01:50:20.777Z,0.47
2018-11-28T01:52:49.855Z,0.50
2018-11-28T01:55:20.134Z,0.40
2018-11-28T01:57:49.162Z,0.97
2018-11-28T02:00:27.562Z,0.40
2018-11-28T02:02:58.719Z,0.40
2018-11-28T02:05:27.820Z,0.60
2018-11-28T02:07:56.794Z,0.83
2018-11-28T02:10:25.690Z,0.50
2018-11-28T02:12:53.681Z,0.60
2018-11-28T02:15:28.806Z,0.70
2018-11-28T02:17:58.629Z,0.47
2018-11-28T02:20:27.647Z,0.37
2018-11-28T02:22:56.658Z,0.40
2018-11-28T02:25:25.592Z,0.63
2018-11-28T02:27:54.566Z,0.40
2018-11-28T02:30:23.634Z,0.80
2018-11-28T02:32:52.528Z,0.50
2018-11-28T02:35:21.502Z,1.33
2018-11-28T02:37:50.712Z,0.43
2018-11-28T02:40:20.187Z,0.20
2018-11-28T02:42:50.181Z,0.53
2018-11-28T02:45:20.272Z,0.63
2018-11-28T02:47:54.474Z,0.47
2018-11-28T02:50:23.470Z,0.37
2018-11-28T02:52:52.503Z,0.30
2018-11-28T02:55:21.510Z,1.03
2018-11-28T02:57:50.895Z,0.50
2018-11-28T03:00:26.524Z,0.63
2018-11-28T03:02:55.610Z,0.50
2018-11-28T03:05:24.567Z,1.27
2018-11-28T03:07:53.490Z,0.80
2018-11-28T03:10:23.840Z,0.60
2018-11-28T03:12:52.740Z,0.77
2018-11-28T03:15:27.783Z,0.60
2018-11-28T03:17:56.828Z,0.83
2018-11-28T03:20:25.884Z,0.97
2018-11-28T03:22:54.888Z,1.07
2018-11-28T03:25:23.919Z,3.10
2018-11-28T03:27:52.995Z,1.03
2018-11-28T03:30:22.010Z,2.10
2018-11-28T03:32:51.038Z,0.97
2018-11-28T03:35:21.707Z,2.40
2018-11-28T03:37:49.217Z,1.40
2018-11-28T03:40:18.266Z,3.10
2018-11-28T03:42:47.289Z,1.67
2018-11-28T03:45:16.943Z,2.77
2018-11-28T03:47:46.544Z,3.47
2018-11-28T03:50:16.370Z,2.57
2018-11-28T03:52:45.359Z,2.50
2018-11-28T03:55:16.590Z,1.23
2018-11-28T03:57:46.775Z,2.67
2018-11-28T04:00:17.835Z,2.73
2018-11-28T04:02:46.891Z,2.63
2018-11-28T04:05:15.942Z,1.00
2018-11-28T04:07:44.931Z,1.23
2018-11-28T04:10:14.917Z,2.10
2018-11-28T04:12:44.611Z,1.83
2018-11-28T04:15:17.706Z,2.27
2018-11-28T04:17:46.838Z,1.10
2018-11-28T04:20:18.506Z,1.27
2018-11-28T04:22:47.552Z,0.50
2018-11-28T04:25:17.455Z,0.73
2018-11-28T04:27:46.491Z,0.97
2018-11-28T04:30:19.534Z,0.40
2018-11-28T04:32:48.963Z,1.03
2018-11-28T04:35:17.942Z,1.10
2018-11-28T04:37:47.250Z,0.43
2018-11-28T04:40:17.849Z,0.70
2018-11-28T04:42:47.249Z,0.40
2018-11-28T04:45:22.469Z,0.60
2018-11-28T04:47:52.224Z,1.07
2018-11-28T04:50:22.464Z,1.17
2018-11-28T04:52:51.467Z,0.70
2018-11-28T04:55:21.066Z,0.40
2018-11-28T04:57:50.120Z,3.70
2018-11-28T05:00:20.296Z,0.60
2018-11-28T05:02:49.590Z,0.60
2018-11-28T05:05:18.610Z,0.90
2018-11-28T05:07:48.463Z,2.63
2018-11-28T05:10:28.447Z,1.47
2018-11-28T05:12:58.298Z,1.27
2018-11-28T05:15:28.254Z,0.87
2018-11-28T05:17:57.345Z,2.03
2018-11-28T05:20:28.349Z,1.63
2018-11-28T05:22:57.409Z,2.23
2018-11-28T05:25:28.147Z,3.03
2018-11-28T05:27:57.366Z,1.77
2018-11-28T05:30:29.783Z,1.63
2018-11-28T05:32:58.862Z,3.53
2018-11-28T05:35:33.450Z,1.87
2018-11-28T05:38:03.791Z,2.40
2018-11-28T05:40:32.731Z,2.13
2018-11-28T05:43:01.661Z,3.00
2018-11-28T05:45:30.635Z,2.93
2018-11-28T05:48:01.245Z,1.70
2018-11-28T05:50:30.234Z,2.50
2018-11-28T05:52:59.252Z,2.40
2018-11-28T05:55:29.466Z,5.03
2018-11-28T05:57:58.467Z,2.87
2018-11-28T06:00:36.980Z,2.93
2018-11-28T06:03:07.406Z,2.57
2018-11-28T06:05:36.606Z,3.10
2018-11-28T06:08:05.761Z,6.00
2018-11-28T06:10:34.789Z,1.80
2018-11-28T06:13:03.799Z,1.33
2018-11-28T06:15:32.840Z,0.80
2018-11-28T06:18:01.954Z,0.93
2018-11-28T06:20:33.816Z,2.30
2018-11-28T06:23:02.858Z,1.60
2018-11-28T06:25:31.879Z,0.87
2018-11-28T06:28:00.889Z,0.73
2018-11-28T06:30:29.901Z,1.43
2018-11-28T06:32:58.936Z,0.83
2018-11-28T06:35:27.914Z,1.37
2018-11-28T06:37:56.915Z,0.50
2018-11-28T06:40:25.892Z,0.87
2018-11-28T06:42:54.883Z,1.10
2018-11-28T06:45:23.976Z,0.40
2018-11-28T06:47:52.988Z,0.40
2018-11-28T06:50:22.044Z,0.50
2018-11-28T06:52:51.998Z,0.53
2018-11-28T06:55:21.993Z,0.90
2018-11-28T06:57:51.621Z,1.17
2018-11-28T07:00:21.513Z,2.17
2018-11-28T07:02:51.518Z,1.37
2018-11-28T07:05:20.836Z,0.63
2018-11-28T07:07:49.934Z,0.57
2018-11-28T07:10:19.984Z,0.43
2018-11-28T07:12:48.979Z,0.87
2018-11-28T07:15:19.901Z,0.43
2018-11-28T07:17:48.927Z,1.07
2018-11-28T07:20:18.080Z,0.70
2018-11-28T07:22:47.101Z,0.97
2018-11-28T07:25:18.779Z,0.90
2018-11-28T07:27:48.857Z,0.73
2018-11-28T07:30:19.292Z,1.73
2018-11-28T07:32:48.852Z,2.40
2018-11-28T07:35:18.812Z,3.17
2018-11-28T07:37:47.724Z,1.47
2018-11-28T07:40:20.823Z,2.07
2018-11-28T07:42:56.047Z,1.83
2018-11-28T07:45:25.040Z,3.30
2018-11-28T07:47:54.090Z,1.80
2018-11-28T07:50:23.079Z,1.63
2018-11-28T07:52:52.101Z,1.57
2018-11-28T07:55:21.383Z,2.30
2018-11-28T07:57:50.343Z,2.33
2018-11-28T08:00:19.424Z,2.87
2018-11-28T08:02:48.417Z,1.53
2018-11-28T08:05:17.379Z,1.93
2018-11-28T08:07:47.844Z,1.83
2018-11-28T08:10:27.182Z,2.47
2018-11-28T08:12:57.374Z,2.07
2018-11-28T08:15:26.426Z,1.77
2018-11-28T08:17:55.558Z,3.50
2018-11-28T08:20:24.674Z,1.70
2018-11-28T08:22:53.646Z,1.77
2018-11-28T08:25:27.514Z,2.73
2018-11-28T08:27:52.002Z,1.82
2018-11-28T08:30:23.823Z,1.93
2018-11-28T08:32:53.111Z,2.83
2018-11-28T08:35:22.149Z,2.10
2018-11-28T08:37:51.210Z,1.53
2018-11-28T08:40:21.723Z,3.23
2018-11-28T08:42:50.889Z,2.57
2018-11-28T08:45:20.933Z,1.30
2018-11-28T08:47:52.135Z,2.70
2018-11-28T08:50:22.612Z,1.90
2018-11-28T08:52:51.628Z,0.87
2018-11-28T08:55:20.563Z,2.17
2018-11-28T08:57:49.651Z,1.90
2018-11-28T09:00:20.580Z,1.57
2018-11-28T09:02:50.580Z,2.33
2018-11-28T09:05:19.571Z,1.87
2018-11-28T09:07:48.594Z,1.37
2018-11-28T09:10:18.481Z,1.83
2018-11-28T09:12:47.876Z,2.90
2018-11-28T09:15:21.858Z,10.60
2018-11-28T09:17:52.347Z,2.50
2018-11-28T09:20:21.225Z,2.33
2018-11-28T09:22:50.177Z,1.70
2018-11-28T09:25:20.013Z,2.23
2018-11-28T09:27:50.404Z,2.93
2018-11-28T09:30:20.497Z,1.77
2018-11-28T09:32:50.251Z,2.17
2018-11-28T09:35:19.804Z,1.70
2018-11-28T09:37:49.200Z,1.80
2018-11-28T09:40:24.342Z,2.63
2018-11-28T09:42:57.682Z,1.43
2018-11-28T09:45:26.892Z,1.23
2018-11-28T09:47:55.955Z,1.90
2018-11-28T09:50:27.136Z,2.10
2018-11-28T09:52:56.163Z,2.70
2018-11-28T09:55:26.236Z,1.73
2018-11-28T09:57:55.265Z,1.77
2018-11-28T10:00:25.059Z,1.30
2018-11-28T10:02:55.250Z,1.83
2018-11-28T10:05:32.045Z,2.33
2018-11-28T10:08:01.141Z,1.40
2018-11-28T10:10:30.220Z,1.83
2018-11-28T10:12:59.195Z,2.53
2018-11-28T10:15:35.300Z,1.63
2018-11-28T10:17:58.426Z,1.63
2018-11-28T10:20:27.395Z,1.47
2018-11-28T10:22:56.363Z,3.17
2018-11-28T10:25:26.905Z,2.83
2018-11-28T10:28:00.738Z,2.53
2018-11-28T10:30:30.852Z,1.80
2018-11-28T10:32:59.795Z,1.97
2018-11-28T10:35:28.800Z,0.73
2018-11-28T10:37:57.828Z,2.53
2018-11-28T10:40:26.819Z,1.83
2018-11-28T10:42:56.919Z,2.23
2018-11-28T10:45:27.126Z,3.27
2018-11-28T10:47:56.331Z,4.00
2018-11-28T10:50:25.451Z,3.83
2018-11-28T10:52:54.459Z,1.30
2018-11-28T10:55:24.560Z,1.40
2018-11-28T10:57:53.637Z,1.87
2018-11-28T11:00:29.817Z,2.63
2018-11-28T11:03:03.829Z,2.90
2018-11-28T11:05:37.989Z,2.70
2018-11-28T11:08:12.491Z,3.30
2018-11-28T11:10:46.636Z,2.97
2018-11-28T11:13:20.683Z,3.33
2018-11-28T11:15:57.733Z,3.07
2018-11-28T11:18:27.595Z,3.43
2018-11-28T11:20:56.568Z,5.03
2018-11-28T11:23:25.575Z,3.03
2018-11-28T11:25:54.817Z,3.03
2018-11-28T11:28:23.816Z,3.00
2018-11-28T11:30:54.386Z,2.87
2018-11-28T11:33:23.478Z,3.87
2018-11-28T11:35:52.526Z,5.57
2018-11-28T11:38:21.466Z,3.50
2018-11-28T11:40:50.733Z,4.00
2018-11-28T11:43:19.768Z,2.53
2018-11-28T11:45:48.851Z,3.90
2018-11-28T11:48:17.888Z,2.33
2018-11-28T11:50:46.998Z,3.07
2018-11-28T11:53:16.052Z,3.30
2018-11-28T11:55:45.183Z,2.97
2018-11-28T11:58:14.188Z,4.17
2018-11-28T12:00:44.673Z,4.07
2018-11-28T12:03:14.461Z,4.87
2018-11-28T12:05:45.190Z,6.27
2018-11-28T12:08:14.319Z,4.07
2018-11-28T12:10:43.248Z,4.33
2018-11-28T12:13:12.372Z,5.20
2018-11-28T12:15:41.379Z,4.93
2018-11-28T12:18:10.452Z,7.73
2018-11-28T12:20:47.605Z,6.13
2018-11-28T12:23:16.696Z,5.97
2018-11-28T12:25:45.618Z,6.83
2018-11-28T12:28:14.514Z,5.53
2018-11-28T12:30:43.533Z,4.83
2018-11-28T12:33:12.490Z,6.37
2018-11-28T12:35:41.503Z,6.07
2018-11-28T12:38:10.426Z,7.17
2018-11-28T12:40:39.453Z,7.13
2018-11-28T12:43:10.444Z,7.07
2018-11-28T12:45:41.994Z,8.77
2018-11-28T12:48:10.901Z,7.57
2018-11-28T12:50:39.875Z,6.40
2018-11-28T12:53:12.076Z,8.13
2018-11-28T12:55:42.494Z,7.43
2018-11-28T12:58:14.709Z,7.70
2018-11-28T13:00:44.307Z,5.97
2018-11-28T13:03:14.812Z,8.73
2018-11-28T13:05:43.742Z,7.37
2018-11-28T13:08:12.678Z,8.07
2018-11-28T13:10:42.305Z,7.60
2018-11-28T13:13:12.107Z,7.57
2018-11-28T13:15:41.177Z,8.57
2018-11-28T13:18:11.624Z,6.93
2018-11-28T13:20:41.874Z,8.23
2018-11-28T13:23:12.339Z,8.93
2018-11-28T13:25:41.390Z,8.87
2018-11-28T13:28:10.419Z,9.37
2018-11-28T13:30:41.063Z,8.83
2018-11-28T13:33:10.160Z,8.20
2018-11-28T13:35:39.150Z,10.63
2018-11-28T13:38:10.278Z,8.90
2018-11-28T13:40:39.319Z,12.00
2018-11-28T13:43:09.618Z,8.77
2018-11-28T13:45:42.126Z,10.87
2018-11-28T13:48:11.202Z,10.27
2018-11-28T13:50:40.115Z,11.13
2018-11-28T13:53:15.551Z,7.23
2018-11-28T13:56:57.096Z,7.80
2018-11-28T13:58:23.101Z,7.70
2018-11-28T14:00:52.042Z,8.65
2018-11-28T14:03:20.921Z,7.13
2018-11-28T14:05:49.920Z,6.73
2018-11-28T14:08:18.843Z,8.10
2018-11-28T14:10:47.871Z,6.90
2018-11-28T14:13:17.004Z,9.10
2018-11-28T14:15:45.949Z,9.03
2018-11-28T14:18:18.128Z,8.73
2018-11-28T14:20:47.143Z,8.43
2018-11-28T14:23:16.034Z,9.00
2018-11-28T14:25:45.042Z,11.33
2018-11-28T14:28:14.250Z,9.27
2018-11-28T14:30:43.663Z,11.30
2018-11-28T14:33:12.639Z,9.93
2018-11-28T14:35:41.596Z,10.07
2018-11-28T14:38:10.510Z,11.47
2018-11-28T14:40:39.519Z,9.70
2018-11-28T14:43:08.759Z,9.90
2018-11-28T14:45:37.997Z,8.67
2018-11-28T14:48:07.074Z,8.17
2018-11-28T14:50:35.998Z,4.40
2018-11-28T14:53:05.323Z,9.07
2018-11-28T14:55:37.919Z,7.97
2018-11-28T14:58:08.453Z,8.97
2018-11-28T15:00:37.455Z,6.80
2018-11-28T15:03:20.971Z,9.63
2018-11-28T15:06:03.983Z,11.57
2018-11-28T15:08:33.581Z,11.50
2018-11-28T15:11:07.226Z,9.50
2018-11-28T15:13:36.210Z,9.03
2018-11-28T15:16:05.282Z,9.03
2018-11-28T15:18:34.238Z,7.80
2018-11-28T15:21:03.221Z,9.03
2018-11-28T15:23:33.490Z,8.97
2018-11-28T15:26:02.403Z,12.50
2018-11-28T15:28:31.392Z,7.30
2018-11-28T15:31:00.357Z,7.80
2018-11-28T15:33:29.378Z,11.33
2018-11-28T15:35:58.347Z,11.73
2018-11-28T15:38:27.295Z,11.47
2018-11-28T15:40:56.898Z,10.93
2018-11-28T15:43:25.806Z,9.90
2018-11-28T15:45:54.790Z,12.10
2018-11-28T15:48:23.810Z,9.07
2018-11-28T15:50:52.782Z,8.57
2018-11-28T15:53:21.758Z,9.67
2018-11-28T15:55:52.217Z,11.40
2018-11-28T15:58:21.475Z,9.27
2018-11-28T16:00:50.473Z,10.23
2018-11-28T16:03:19.509Z,10.73
2018-11-28T16:05:48.483Z,12.33
2018-11-28T16:08:17.586Z,9.67
2018-11-28T16:10:46.578Z,12.07
2018-11-28T16:13:17.471Z,10.50
2018-11-28T16:15:51.834Z,13.13
2018-11-28T16:18:20.894Z,9.87
2018-11-28T16:20:49.914Z,10.00
2018-11-28T16:23:20.238Z,9.60
2018-11-28T16:25:49.190Z,11.93
2018-11-28T16:28:18.198Z,8.00
2018-11-28T16:30:47.223Z,10.13
2018-11-28T16:33:16.263Z,11.20
2018-11-28T16:35:45.185Z,9.43
2018-11-28T16:38:15.724Z,10.13
2018-11-28T16:40:44.661Z,6.77
2018-11-28T16:43:13.587Z,7.67
2018-11-28T16:45:42.616Z,9.30
2018-11-28T16:48:11.618Z,7.90
2018-11-28T16:50:40.622Z,9.97
2018-11-28T16:53:10.023Z,7.57
2018-11-28T16:55:39.427Z,9.97
2018-11-28T16:58:09.285Z,8.00
2018-11-28T17:00:40.581Z,8.40
2018-11-28T17:03:09.710Z,6.87
2018-11-28T17:05:39.062Z,11.47
2018-11-28T17:08:09.768Z,8.67
2018-11-28T17:10:39.000Z,9.30
2018-11-28T17:13:08.480Z,8.67
2018-11-28T17:15:38.473Z,8.93
2018-11-28T17:18:07.801Z,8.90
2018-11-28T17:20:38.383Z,9.23
2018-11-28T17:23:09.177Z,9.77
2018-11-28T17:25:38.345Z,9.27
2018-11-28T17:28:07.648Z,9.43
2018-11-28T17:30:38.434Z,7.40
2018-11-28T17:33:07.604Z,9.23
2018-11-28T17:35:36.625Z,10.40
2018-11-28T17:38:05.988Z,11.80
2018-11-28T17:40:34.915Z,9.03
2018-11-28T17:43:03.958Z,9.43
2018-11-28T17:45:33.253Z,8.90
2018-11-28T17:48:02.175Z,9.30
2018-11-28T17:50:31.196Z,9.63
2018-11-28T17:53:12.956Z,8.17
2018-11-28T17:55:58.858Z,8.43
2018-11-28T17:58:30.792Z,9.07
2018-11-28T18:01:00.290Z,10.93
2018-11-28T18:03:29.261Z,10.33
2018-11-28T18:05:58.317Z,9.50
2018-11-28T18:08:27.247Z,9.50
2018-11-28T18:11:03.966Z,8.60
2018-11-28T18:13:33.035Z,8.87
2018-11-28T18:16:02.128Z,8.77
2018-11-28T18:18:31.239Z,7.97
2018-11-28T18:21:00.339Z,10.40
2018-11-28T18:23:29.384Z,10.87
2018-11-28T18:25:58.412Z,9.60
2018-11-28T18:28:27.412Z,11.73
2018-11-28T18:30:56.451Z,10.53
2018-11-28T18:33:25.507Z,11.23
2018-11-28T18:35:55.889Z,9.97
2018-11-28T18:38:24.934Z,11.53
2018-11-28T18:40:54.219Z,10.03
2018-11-28T18:43:23.347Z,11.07
2018-11-28T18:45:54.000Z,12.83
2018-11-28T18:48:23.069Z,12.60
2018-11-28T18:50:52.018Z,12.67
2018-11-28T18:53:21.180Z,13.27
2018-11-28T18:55:51.370Z,12.47
2018-11-28T18:58:20.469Z,11.63
2018-11-28T19:00:49.426Z,13.00
2018-11-28T19:03:18.447Z,9.33
2018-11-28T19:05:47.483Z,12.43
2018-11-28T19:08:16.496Z,12.87
2018-11-28T19:10:45.390Z,12.77
2018-11-28T19:13:14.438Z,13.73
2018-11-28T19:15:43.440Z,12.93
2018-11-28T19:18:12.594Z,10.50
2018-11-28T19:20:41.537Z,12.30
2018-11-28T19:23:10.633Z,13.93
2018-11-28T19:25:39.633Z,11.10
2018-11-28T19:28:08.732Z,14.83
2018-11-28T19:30:39.008Z,10.93
2018-11-28T19:33:09.466Z,13.67
2018-11-28T19:35:38.861Z,11.87
2018-11-28T19:38:10.598Z,12.30
2018-11-28T19:41:03.054Z,11.27
2018-11-28T19:43:32.152Z,14.33
2018-11-28T19:46:01.355Z,11.10
2018-11-28T19:48:30.598Z,10.47
2018-11-28T19:50:59.596Z,9.90
2018-11-28T19:53:28.508Z,13.23
2018-11-28T19:55:57.597Z,11.70
2018-11-28T19:58:26.701Z,11.80
2018-11-28T20:00:56.003Z,10.57
2018-11-28T20:03:27.683Z,13.83
2018-11-28T20:05:56.595Z,10.87
2018-11-28T20:08:25.622Z,12.07
2018-11-28T20:10:54.820Z,12.53
2018-11-28T20:13:24.790Z,12.87
2018-11-28T20:15:55.523Z,10.23
2018-11-28T20:18:24.536Z,10.97
2018-11-28T20:20:53.528Z,9.80
2018-11-28T20:23:23.723Z,11.63
2018-11-28T20:25:52.777Z,13.37
2018-11-28T20:28:21.811Z,11.37
2018-11-28T20:30:51.159Z,10.33
2018-11-28T20:33:20.214Z,13.37
2018-11-28T20:35:50.156Z,10.50
2018-11-28T20:38:24.083Z,7.90
2018-11-28T20:40:53.075Z,9.93
2018-11-28T20:43:22.054Z,9.77
2018-11-28T20:45:51.131Z,10.93
2018-11-28T20:48:20.081Z,10.40
2018-11-28T20:50:49.610Z,10.40
2018-11-28T20:53:19.825Z,11.07
2018-11-28T20:55:49.197Z,11.30
2018-11-28T20:58:18.245Z,11.40
2018-11-28T21:00:47.387Z,11.27
2018-11-28T21:03:16.378Z,12.80
2018-11-28T21:05:45.631Z,11.63
2018-11-28T21:08:14.711Z,10.63
2018-11-28T21:10:43.680Z,9.87
2018-11-28T21:13:14.203Z,9.07
2018-11-28T21:15:44.584Z,7.50
2018-11-28T21:18:13.815Z,8.83
2018-11-28T21:20:44.235Z,9.07
2018-11-28T21:23:15.803Z,8.43
2018-11-28T21:25:44.765Z,9.47
2018-11-28T21:28:13.811Z,13.20
2018-11-28T21:30:44.081Z,8.07
2018-11-28T21:33:14.138Z,10.47
2018-11-28T21:35:48.239Z,12.87
2018-11-28T21:38:17.296Z,8.93
2018-11-28T21:40:46.315Z,8.03
2018-11-28T21:43:15.294Z,10.37
2018-11-28T21:45:44.452Z,8.30
2018-11-28T21:48:13.458Z,8.63
2018-11-28T21:50:42.468Z,9.83
2018-11-28T21:53:11.583Z,11.37
2018-11-28T21:55:40.580Z,11.63
2018-11-28T21:58:09.561Z,7.73
2018-11-28T22:00:38.745Z,12.23
2018-11-28T22:03:08.104Z,10.70
2018-11-28T22:05:37.155Z,10.77
2018-11-28T22:08:07.588Z,8.03
2018-11-28T22:10:36.570Z,11.07
2018-11-28T22:13:05.645Z,12.23
2018-11-28T22:15:34.658Z,10.90
2018-11-28T22:18:09.803Z,9.90
2018-11-28T22:20:38.926Z,10.63
2018-11-28T22:23:07.958Z,8.37
2018-11-28T22:25:36.955Z,8.33
2018-11-28T22:28:07.033Z,13.90
2018-11-28T22:30:36.032Z,10.80
2018-11-28T22:33:05.205Z,8.47
2018-11-28T22:35:34.189Z,6.87
2018-11-28T22:38:03.258Z,10.93
2018-11-28T22:40:32.563Z,13.47
2018-11-28T22:43:01.568Z,10.07
2018-11-28T22:45:33.127Z,9.77
2018-11-28T22:48:02.154Z,9.73
2018-11-28T22:50:31.162Z,11.33
2018-11-28T22:53:00.183Z,10.07
2018-11-28T22:55:29.321Z,12.73
2018-11-28T22:57:58.256Z,12.13
2018-11-28T23:00:32.894Z,14.43
2018-11-28T23:03:05.390Z,9.53
2018-11-28T23:05:35.527Z,8.97
2018-11-28T23:08:05.681Z,8.87
2018-11-28T23:10:34.736Z,9.03
2018-11-28T23:13:03.731Z,10.00
2018-11-28T23:15:32.728Z,10.00
2018-11-28T23:18:01.699Z,10.50
2018-11-28T23:20:30.674Z,9.47
2018-11-28T23:22:59.689Z,8.37
2018-11-28T23:25:28.718Z,7.27
2018-11-28T23:27:57.638Z,9.40
2018-11-28T23:30:26.605Z,10.80
2018-11-28T23:32:55.897Z,8.53
2018-11-28T23:35:25.540Z,9.10
2018-11-28T23:37:54.546Z,8.60
2018-11-28T23:40:25.440Z,9.17
2018-11-28T23:42:55.213Z,11.73
2018-11-28T23:45:24.702Z,11.00
2018-11-28T23:47:53.626Z,9.90
2018-11-28T23:50:23.575Z,10.48
2018-11-28T23:52:53.291Z,8.43
2018-11-28T23:55:25.102Z,10.60
2018-11-28T23:57:54.309Z,10.60
